createdAt,value
2018-11-27T00:01:43.639Z,79.08
2018-11-27T00:04:12.047Z,79.35
2018-11-27T00:07:11.426Z,79.70
2018-11-27T00:09:39.894Z,79.75
2018-11-27T00:12:12.517Z,80.00
2018-11-27T00:14:41.105Z,79.66
2018-11-27T00:17:11.559Z,79.70
2018-11-27T00:19:40.054Z,79.56
2018-11-27T00:22:08.845Z,79.83
2018-11-27T00:24:37.486Z,79.76
2018-11-27T00:27:12.366Z,79.66
2018-11-27T00:29:40.835Z,80.10
2018-11-27T00:32:09.306Z,79.97
2018-11-27T00:34:38.048Z,80.28
2018-11-27T00:37:06.503Z,79.96
2018-11-27T00:39:35.157Z,80.12
2018-11-27T00:42:03.596Z,80.27
2018-11-27T00:44:37.788Z,80.32
2018-11-27T00:47:07.145Z,80.02
2018-11-27T00:49:39.426Z,80.21
2018-11-27T00:52:07.966Z,80.09
2018-11-27T00:54:36.822Z,79.89
2018-11-27T00:57:05.247Z,79.77
2018-11-27T00:59:33.893Z,79.56
2018-11-27T01:02:02.519Z,79.90
2018-11-27T01:04:35.827Z,80.18
2018-11-27T01:07:04.277Z,80.04
2018-11-27T01:09:32.720Z,79.73
2018-11-27T01:12:01.233Z,79.61
2018-11-27T01:15:01.548Z,79.26
2018-11-27T01:17:31.059Z,79.56
2018-11-27T01:19:59.480Z,79.64
2018-11-27T01:22:27.972Z,79.58
2018-11-27T01:25:01.260Z,79.94
2018-11-27T01:27:29.924Z,80.04
2018-11-27T01:29:58.388Z,79.88
2018-11-27T01:35:01.641Z,78.79
2018-11-27T01:37:30.028Z,79.10
2018-11-27T01:39:58.546Z,79.21
2018-11-27T01:42:31.407Z,79.29
2018-11-27T01:45:00.970Z,79.52
2018-11-27T01:47:29.363Z,79.01
2018-11-27T01:49:57.794Z,79.31
2018-11-27T01:52:26.265Z,79.13
2018-11-27T01:54:54.730Z,79.54
2018-11-27T01:57:23.195Z,79.24
2018-11-27T01:59:51.653Z,79.35
2018-11-27T02:02:20.097Z,79.43
2018-11-27T02:05:53.682Z,79.69
2018-11-27T02:08:22.201Z,79.41
2018-11-27T02:10:50.759Z,79.55
2018-11-27T02:13:19.247Z,79.37
2018-11-27T02:15:47.905Z,79.63
2018-11-27T02:18:16.322Z,79.05
2018-11-27T02:20:45.009Z,79.71
2018-11-27T02:23:13.419Z,79.73
2018-11-27T02:25:41.832Z,79.69
2018-11-27T02:28:10.285Z,79.77
2018-11-27T02:30:38.910Z,79.78
2018-11-27T02:33:12.082Z,79.90
2018-11-27T02:35:40.648Z,80.11
2018-11-27T02:38:09.042Z,80.07
2018-11-27T02:40:37.474Z,80.26
2018-11-27T02:45:57.903Z,80.54
2018-11-27T02:48:26.397Z,80.35
2018-11-27T02:50:54.829Z,80.27
2018-11-27T02:53:28.170Z,80.08
2018-11-27T02:55:59.509Z,80.15
2018-11-27T02:58:28.031Z,80.25
2018-11-27T03:00:56.539Z,80.45
2018-11-27T03:03:25.121Z,80.40
2018-11-27T03:05:53.575Z,80.87
2018-11-27T03:08:22.678Z,80.46
2018-11-27T03:11:26.707Z,80.16
2018-11-27T03:13:55.218Z,80.04
2018-11-27T03:16:23.812Z,80.11
2018-11-27T03:18:52.216Z,80.13
2018-11-27T03:21:20.813Z,80.25
2018-11-27T03:23:49.345Z,80.04
2018-11-27T03:26:17.929Z,79.91
2018-11-27T03:28:46.415Z,80.34
2018-11-27T03:31:14.818Z,80.15
2018-11-27T03:33:46.260Z,80.47
2018-11-27T03:36:14.710Z,80.60
2018-11-27T03:38:43.262Z,80.68
2018-11-27T03:41:11.686Z,80.27
2018-11-27T03:43:40.165Z,80.79
2018-11-27T03:46:09.732Z,80.26
2018-11-27T03:48:38.169Z,80.42
2018-11-27T03:51:06.603Z,80.63
2018-11-27T03:53:35.254Z,80.70
2018-11-27T03:56:03.743Z,81.11
2018-11-27T03:58:32.160Z,80.86
2018-11-27T04:01:01.592Z,80.65
2018-11-27T04:03:30.064Z,80.62
2018-11-27T04:05:58.466Z,80.80
2018-11-27T04:08:26.871Z,80.47
2018-11-27T04:10:55.954Z,80.92
2018-11-27T04:13:24.375Z,80.96
2018-11-27T04:15:52.850Z,80.95
2018-11-27T04:18:21.242Z,80.54
2018-11-27T04:20:49.718Z,80.86
2018-11-27T04:23:18.263Z,81.03
2018-11-27T04:25:46.815Z,81.15
2018-11-27T04:28:18.158Z,80.81
2018-11-27T04:30:46.772Z,80.58
2018-11-27T04:33:15.491Z,80.98
2018-11-27T04:35:43.886Z,80.52
2018-11-27T04:38:12.572Z,80.27
2018-11-27T04:40:56.679Z,80.90
2018-11-27T04:43:25.132Z,81.06
2018-11-27T04:45:53.563Z,81.22
2018-11-27T04:48:22.172Z,80.90
2018-11-27T04:50:53.581Z,81.00
2018-11-27T04:53:22.004Z,81.11
2018-11-27T04:55:50.445Z,80.49
2018-11-27T04:58:18.911Z,80.77
2018-11-27T05:00:49.623Z,80.98
2018-11-27T05:03:18.161Z,80.90
2018-11-27T05:05:46.563Z,80.65
2018-11-27T05:08:15.036Z,81.51
2018-11-27T05:10:43.523Z,81.83
2018-11-27T05:13:11.955Z,81.62
2018-11-27T05:15:40.646Z,81.97
2018-11-27T05:18:09.086Z,81.86
2018-11-27T05:20:37.664Z,81.40
2018-11-27T05:23:06.911Z,81.70
2018-11-27T05:25:35.580Z,81.79
2018-11-27T05:28:04.029Z,81.49
2018-11-27T05:30:37.675Z,81.50
2018-11-27T05:33:06.591Z,81.87
2018-11-27T05:35:35.053Z,81.51
2018-11-27T05:38:04.276Z,81.44
2018-11-27T05:40:32.729Z,81.13
2018-11-27T05:43:03.350Z,81.63
2018-11-27T05:45:38.718Z,81.19
2018-11-27T05:48:07.181Z,81.51
2018-11-27T05:50:39.457Z,81.49
2018-11-27T05:53:07.949Z,81.53
2018-11-27T05:55:39.496Z,81.23
2018-11-27T05:58:07.899Z,81.59
2018-11-27T06:00:39.193Z,81.65
2018-11-27T06:06:19.086Z,81.52
2018-11-27T06:08:47.538Z,81.39
2018-11-27T06:11:16.030Z,81.50
2018-11-27T06:13:44.793Z,81.65
2018-11-27T06:16:13.243Z,81.56
2018-11-27T06:18:51.065Z,81.70
2018-11-27T06:21:20.789Z,81.56
2018-11-27T06:23:49.206Z,81.86
2018-11-27T06:26:17.730Z,81.67
2018-11-27T06:28:46.247Z,81.87
2018-11-27T06:31:14.780Z,81.69
2018-11-27T06:33:43.526Z,82.01
2018-11-27T06:36:11.993Z,81.96
2018-11-27T06:38:40.522Z,81.68
2018-11-27T06:41:09.138Z,82.01
2018-11-27T06:43:44.251Z,82.20
2018-11-27T06:46:12.760Z,81.59
2018-11-27T06:49:05.728Z,81.80
2018-11-27T06:51:34.148Z,81.75
2018-11-27T06:54:02.564Z,81.51
2018-11-27T06:56:31.124Z,81.92
2018-11-27T06:59:00.494Z,82.27
2018-11-27T07:01:28.928Z,82.19
2018-11-27T07:04:08.714Z,81.91
2018-11-27T07:06:41.192Z,82.34
2018-11-27T07:09:10.690Z,82.27
2018-11-27T07:11:39.101Z,82.60
2018-11-27T07:14:14.491Z,82.93
2018-11-27T07:16:43.044Z,82.84
2018-11-27T07:19:15.640Z,82.53
2018-11-27T07:21:44.253Z,82.27
2018-11-27T07:24:12.666Z,82.15
2018-11-27T07:26:41.158Z,82.59
2018-11-27T07:29:09.623Z,82.44
2018-11-27T07:34:50.104Z,82.70
2018-11-27T07:37:18.552Z,82.95
2018-11-27T07:39:47.204Z,83.22
2018-11-27T07:42:19.706Z,83.11
2018-11-27T07:44:48.343Z,82.73
2018-11-27T07:47:17.346Z,82.97
2018-11-27T07:49:48.598Z,83.17
2018-11-27T07:52:17.039Z,82.77
2018-11-27T07:54:45.506Z,83.00
2018-11-27T07:57:18.882Z,82.85
2018-11-27T07:59:47.591Z,82.86
2018-11-27T08:02:15.995Z,82.69
2018-11-27T08:04:44.467Z,82.64
2018-11-27T08:07:13.034Z,82.68
2018-11-27T08:09:41.645Z,82.68
2018-11-27T08:12:10.154Z,82.49
2018-11-27T08:14:38.777Z,82.30
2018-11-27T08:17:07.234Z,82.54
2018-11-27T08:19:36.623Z,81.95
2018-11-27T08:22:05.786Z,81.86
2018-11-27T08:24:34.223Z,82.01
2018-11-27T08:27:03.297Z,81.89
2018-11-27T08:29:31.714Z,81.75
2018-11-27T08:32:00.205Z,82.00
2018-11-27T08:34:28.654Z,81.97
2018-11-27T08:36:57.107Z,82.14
2018-11-27T08:39:29.560Z,81.66
2018-11-27T08:41:58.148Z,82.09
2018-11-27T08:44:26.611Z,81.80
2018-11-27T08:46:56.008Z,81.97
2018-11-27T08:49:24.494Z,81.82
2018-11-27T08:51:52.988Z,81.56
2018-11-27T08:54:21.473Z,81.54
2018-11-27T08:56:50.980Z,81.50
2018-11-27T08:59:21.312Z,80.87
2018-11-27T09:01:49.988Z,80.78
2018-11-27T09:04:18.403Z,80.76
2018-11-27T09:06:47.010Z,80.82
2018-11-27T09:09:22.306Z,80.77
2018-11-27T09:11:50.963Z,80.70
2018-11-27T09:14:19.616Z,80.82
2018-11-27T09:16:48.088Z,80.43
2018-11-27T09:19:16.796Z,80.42
2018-11-27T09:21:46.134Z,80.36
2018-11-27T09:24:14.573Z,80.37
2018-11-27T09:26:43.264Z,79.75
2018-11-27T09:29:11.699Z,79.95
2018-11-27T09:31:40.157Z,79.85
2018-11-27T09:34:13.600Z,79.38
2018-11-27T09:48:24.800Z,79.03
2018-11-27T09:56:26.518Z,78.02
2018-11-27T10:01:39.923Z,77.60
2018-11-27T10:04:25.182Z,77.26
2018-11-27T10:06:53.948Z,76.97
2018-11-27T10:09:35.928Z,76.04
2018-11-27T10:12:24.967Z,75.31
2018-11-27T10:17:49.746Z,74.81
2018-11-27T10:20:29.571Z,74.34
2018-11-27T10:22:58.030Z,74.28
2018-11-27T10:25:26.497Z,73.67
2018-11-27T10:27:55.066Z,73.14
2018-11-27T10:33:03.321Z,72.72
2018-11-27T10:35:34.466Z,72.50
2018-11-27T10:38:03.549Z,71.96
2018-11-27T10:40:38.506Z,71.37
2018-11-27T10:43:07.328Z,70.30
2018-11-27T10:45:42.670Z,70.49
2018-11-27T10:48:15.115Z,70.40
2018-11-27T10:50:47.742Z,70.36
2018-11-27T10:53:16.141Z,69.48
2018-11-27T10:55:44.576Z,69.83
2018-11-27T10:58:13.191Z,69.29
2018-11-27T11:00:47.058Z,69.62
2018-11-27T11:03:46.017Z,69.15
2018-11-27T11:06:14.510Z,69.13
2018-11-27T11:08:48.390Z,68.54
2018-11-27T11:11:16.898Z,68.38
2018-11-27T11:13:45.381Z,68.47
2018-11-27T11:16:14.029Z,68.22
2018-11-27T11:18:42.451Z,68.39
2018-11-27T11:21:25.769Z,67.67
2018-11-27T11:23:54.324Z,68.03
2018-11-27T11:26:23.196Z,67.60
2018-11-27T11:28:51.912Z,67.31
2018-11-27T11:31:24.424Z,67.89
2018-11-27T11:33:53.087Z,67.73
2018-11-27T11:36:21.651Z,67.78
2018-11-27T11:38:59.817Z,67.67
2018-11-27T11:41:31.273Z,67.75
2018-11-27T11:43:57.325Z,67.63
2018-11-27T11:46:25.894Z,67.81
2018-11-27T11:48:54.304Z,67.64
2018-11-27T11:51:22.774Z,67.87
2018-11-27T11:53:51.230Z,67.96
2018-11-27T11:56:19.855Z,67.70
2018-11-27T11:58:48.350Z,68.15
2018-11-27T12:01:20.973Z,68.02
2018-11-27T12:03:49.700Z,67.28
2018-11-27T12:06:18.211Z,67.23
2018-11-27T12:08:46.731Z,66.91
2018-11-27T12:11:15.352Z,67.23
2018-11-27T12:13:43.854Z,67.48
2018-11-27T12:16:13.627Z,66.32
2018-11-27T12:18:42.069Z,66.67
2018-11-27T12:21:10.611Z,66.80
2018-11-27T12:23:39.055Z,67.11
2018-11-27T12:26:07.767Z,67.30
2018-11-27T12:28:36.307Z,67.72
2018-11-27T12:31:05.542Z,67.55
2018-11-27T12:33:34.071Z,67.05
2018-11-27T12:36:07.066Z,67.01
2018-11-27T12:38:35.494Z,67.09
2018-11-27T12:43:11.888Z,66.82
2018-11-27T12:45:43.368Z,67.21
2018-11-27T12:48:11.846Z,67.50
2018-11-27T12:50:47.413Z,67.96
2018-11-27T12:53:21.636Z,67.93
2018-11-27T12:55:56.299Z,67.72
2018-11-27T12:58:24.854Z,67.81
2018-11-27T13:00:53.921Z,67.79
2018-11-27T13:03:22.408Z,67.77
2018-11-27T13:05:50.889Z,68.11
2018-11-27T13:08:20.815Z,67.92
2018-11-27T13:11:04.001Z,68.17
2018-11-27T13:13:32.601Z,68.41
2018-11-27T13:16:07.112Z,69.04
2018-11-27T13:18:35.611Z,69.15
2018-11-27T13:21:04.380Z,68.95
2018-11-27T13:23:32.862Z,68.57
2018-11-27T13:26:01.331Z,68.32
2018-11-27T13:28:29.724Z,68.53
2018-11-27T13:31:02.347Z,68.59
2018-11-27T13:33:32.972Z,67.94
2018-11-27T13:36:01.529Z,67.95
2018-11-27T13:38:30.282Z,67.83
2018-11-27T13:41:03.153Z,67.40
2018-11-27T13:43:31.632Z,66.70
2018-11-27T13:46:01.377Z,66.06
2018-11-27T13:51:25.340Z,66.76
2018-11-27T14:02:26.489Z,66.35
2018-11-27T14:30:26.592Z,65.54
2018-11-27T14:55:25.069Z,65.60
2018-11-27T15:06:27.536Z,65.52
2018-11-27T15:14:27.637Z,66.71
2018-11-27T15:16:56.147Z,66.91
2018-11-27T15:19:27.597Z,67.19
2018-11-27T15:21:56.082Z,67.19
2018-11-27T15:27:10.729Z,67.65
2018-11-27T15:29:39.319Z,67.51
2018-11-27T15:32:10.833Z,67.23
2018-11-27T15:34:39.261Z,67.59
2018-11-27T15:37:12.071Z,67.77
2018-11-27T15:39:40.756Z,67.94
2018-11-27T15:42:19.798Z,68.27
2018-11-27T15:44:48.258Z,68.29
2018-11-27T15:47:17.975Z,68.54
2018-11-27T15:49:46.542Z,68.36
2018-11-27T15:52:19.510Z,68.66
2018-11-27T15:54:48.100Z,68.55
2018-11-27T15:57:16.623Z,68.48
2018-11-27T15:59:45.070Z,68.97
2018-11-27T16:02:13.599Z,68.40
2018-11-27T16:09:01.384Z,68.64
2018-11-27T16:14:03.926Z,68.35
2018-11-27T16:16:38.446Z,68.95
2018-11-27T16:19:07.285Z,69.15
2018-11-27T16:21:35.915Z,69.21
2018-11-27T16:24:04.445Z,68.79
2018-11-27T16:26:33.036Z,69.10
2018-11-27T16:29:01.607Z,68.84
2018-11-27T16:32:33.395Z,69.17
2018-11-27T16:35:01.876Z,68.81
2018-11-27T16:37:37.303Z,69.01
2018-11-27T16:40:15.509Z,69.06
2018-11-27T16:42:44.121Z,69.06
2018-11-27T16:45:15.125Z,69.58
2018-11-27T16:47:44.074Z,69.64
2018-11-27T16:50:13.745Z,70.02
2018-11-27T16:52:42.467Z,69.98
2018-11-27T16:55:12.251Z,69.64
2018-11-27T16:57:40.845Z,69.13
2018-11-27T17:00:25.526Z,69.28
2018-11-27T17:02:56.491Z,69.41
2018-11-27T17:05:28.447Z,69.46
2018-11-27T17:07:57.308Z,69.47
2018-11-27T17:10:25.803Z,69.60
2018-11-27T17:12:55.834Z,69.86
2018-11-27T17:15:25.655Z,69.58
2018-11-27T17:17:54.399Z,69.55
2018-11-27T17:20:26.779Z,69.73
2018-11-27T17:22:56.227Z,69.29
2018-11-27T17:25:29.836Z,69.69
2018-11-27T17:28:00.980Z,69.53
2018-11-27T17:30:38.140Z,69.52
2018-11-27T17:33:17.922Z,69.23
2018-11-27T17:35:50.500Z,69.45
2018-11-27T17:38:18.993Z,69.73
2018-11-27T17:40:47.516Z,69.87
2018-11-27T17:43:15.995Z,69.60
2018-11-27T17:45:44.452Z,69.34
2018-11-27T17:48:13.045Z,69.48
2018-11-27T17:50:41.578Z,69.65
2018-11-27T17:53:10.273Z,69.45
2018-11-27T17:55:42.511Z,69.40
2018-11-27T17:58:11.277Z,69.43
2018-11-27T18:00:39.775Z,69.88
2018-11-27T18:03:09.721Z,69.53
2018-11-27T18:05:40.357Z,69.55
2018-11-27T18:08:08.865Z,69.45
2018-11-27T18:21:28.491Z,69.61
2018-11-27T18:23:56.992Z,70.12
2018-11-27T18:26:26.114Z,69.88
2018-11-27T18:28:54.805Z,70.00
2018-11-27T18:31:36.767Z,70.01
2018-11-27T18:34:05.670Z,69.64
2018-11-27T18:36:34.152Z,69.83
2018-11-27T18:39:03.009Z,70.06
2018-11-27T18:41:31.914Z,70.10
2018-11-27T18:44:00.387Z,70.23
2018-11-27T18:46:30.984Z,70.56
2018-11-27T18:48:59.605Z,70.16
2018-11-27T18:51:28.298Z,70.61
2018-11-27T18:53:56.984Z,70.73
2018-11-27T18:56:25.591Z,70.54
2018-11-27T18:58:58.360Z,70.87
2018-11-27T19:01:27.024Z,70.60
2018-11-27T19:03:55.684Z,71.16
2018-11-27T19:06:25.041Z,71.16
2018-11-27T19:08:53.576Z,70.76
2018-11-27T19:11:22.051Z,70.98
2018-11-27T19:13:57.319Z,71.02
2018-11-27T19:16:25.759Z,71.16
2018-11-27T19:18:54.700Z,71.38
2018-11-27T19:21:23.384Z,71.13
2018-11-27T19:23:52.042Z,71.54
2018-11-27T19:26:20.559Z,71.73
2018-11-27T19:29:12.404Z,71.33
2018-11-27T19:31:41.244Z,71.32
2018-11-27T19:34:16.258Z,71.88
2018-11-27T19:36:44.821Z,72.35
2018-11-27T19:39:13.631Z,72.84
2018-11-27T19:41:42.126Z,72.41
2018-11-27T19:44:17.179Z,72.11
2018-11-27T19:46:45.660Z,72.04
2018-11-27T19:49:14.315Z,72.34
2018-11-27T19:51:43.379Z,72.21
2018-11-27T19:54:12.339Z,72.35
2018-11-27T19:56:41.046Z,72.40
2018-11-27T19:59:10.434Z,72.25
2018-11-27T20:01:44.416Z,72.71
2018-11-27T20:04:13.153Z,72.77
2018-11-27T20:09:35.413Z,72.46
2018-11-27T20:12:08.852Z,73.23
2018-11-27T20:14:42.594Z,73.05
2018-11-27T20:17:14.247Z,73.29
2018-11-27T20:19:43.013Z,73.18
2018-11-27T20:22:11.476Z,73.11
2018-11-27T20:24:51.764Z,72.97
2018-11-27T20:27:20.372Z,73.16
2018-11-27T20:29:49.824Z,73.31
2018-11-27T20:32:23.709Z,73.60
2018-11-27T20:34:52.244Z,73.41
2018-11-27T20:37:27.232Z,73.69
2018-11-27T20:39:55.994Z,73.55
2018-11-27T20:42:24.558Z,73.59
2018-11-27T20:44:54.735Z,73.57
2018-11-27T20:47:22.164Z,73.36
2018-11-27T20:49:50.671Z,73.54
2018-11-27T20:52:19.294Z,73.80
2018-11-27T20:55:19.319Z,73.59
2018-11-27T20:57:55.761Z,73.77
2018-11-27T21:00:28.051Z,73.61
2018-11-27T21:02:58.415Z,73.43
2018-11-27T21:05:27.038Z,73.63
2018-11-27T21:07:55.749Z,73.29
2018-11-27T21:10:24.393Z,73.83
2018-11-27T21:12:53.193Z,73.78
2018-11-27T21:18:14.486Z,73.62
2018-11-27T21:20:44.105Z,73.59
2018-11-27T21:23:12.965Z,73.73
2018-11-27T21:25:41.934Z,73.81
2018-11-27T21:28:13.904Z,73.43
2018-11-27T21:30:42.948Z,73.09
2018-11-27T21:33:11.681Z,73.16
2018-11-27T21:35:40.205Z,73.48
2018-11-27T21:38:10.227Z,73.21
2018-11-27T21:40:44.164Z,73.32
2018-11-27T21:43:12.981Z,73.38
2018-11-27T21:45:47.173Z,73.72
2018-11-27T21:48:15.754Z,73.33
2018-11-27T21:50:44.909Z,73.55
2018-11-27T21:53:13.559Z,73.39
2018-11-27T21:55:42.696Z,73.94
2018-11-27T21:58:11.321Z,73.71
2018-11-27T22:00:41.437Z,73.62
2018-11-27T22:03:10.858Z,73.91
2018-11-27T22:05:43.475Z,73.66
2018-11-27T22:08:12.103Z,73.70
2018-11-27T22:10:45.898Z,73.49
2018-11-27T22:13:15.918Z,73.62
2018-11-27T22:15:45.384Z,74.14
2018-11-27T22:18:14.564Z,73.62
2018-11-27T22:20:43.143Z,73.92
2018-11-27T22:23:14.646Z,74.34
2018-11-27T22:25:43.244Z,74.32
2018-11-27T22:28:14.666Z,74.64
2018-11-27T22:33:42.245Z,74.32
2018-11-27T22:36:10.743Z,74.76
2018-11-27T22:38:39.433Z,74.51
2018-11-27T22:41:08.023Z,74.48
2018-11-27T22:43:36.700Z,74.42
2018-11-27T22:46:05.213Z,74.34
2018-11-27T22:48:43.606Z,74.44
2018-11-27T22:51:12.817Z,74.37
2018-11-27T22:53:46.596Z,74.54
2018-11-27T22:56:15.306Z,74.76
2018-11-27T22:58:47.142Z,74.80
2018-11-27T23:01:15.628Z,74.89
2018-11-27T23:03:44.217Z,74.50
2018-11-27T23:06:12.889Z,74.77
2018-11-27T23:08:42.402Z,75.49
2018-11-27T23:11:12.284Z,74.92
2018-11-27T23:13:40.829Z,74.54
2018-11-27T23:16:09.370Z,74.85
2018-11-27T23:18:37.933Z,74.50
2018-11-27T23:21:09.607Z,74.73
2018-11-27T23:23:38.111Z,74.92
2018-11-27T23:26:06.689Z,74.89
2018-11-27T23:28:35.139Z,75.01
2018-11-27T23:31:04.923Z,75.29
2018-11-27T23:33:35.146Z,75.08
2018-11-27T23:36:03.627Z,74.99
2018-11-27T23:38:32.057Z,74.85
2018-11-27T23:41:00.485Z,75.20
2018-11-27T23:43:29.322Z,75.17
2018-11-27T23:45:57.794Z,75.37
2018-11-27T23:48:26.290Z,74.74
2018-11-27T23:50:55.183Z,74.70
2018-11-27T23:53:23.587Z,75.18
2018-11-27T23:55:52.645Z,75.21
2018-11-27T23:58:24.291Z,75.16
